sensor_id;sensor_type;location;lat;lon;timestamp;P1;durP1;ratioP1;P2;durP2;ratioP2
69392;SDS011;56582;44.624;20.378;2023-06-10T00:01:56;13.13;;;7.57;;
69392;SDS011;56582;44.624;20.378;2023-06-10T00:04:24;13.18;;;9.60;;
69392;SDS011;56582;44.624;20.378;2023-06-10T00:06:51;14.07;;;9.55;;
69392;SDS011;56582;44.624;20.378;2023-06-10T00:09:16;10.43;;;7.57;;
69392;SDS011;56582;44.624;20.378;2023-06-10T00:11:43;11.77;;;8.57;;
69392;SDS011;56582;44.624;20.378;2023-06-10T00:14:09;12.77;;;9.18;;
69392;SDS011;56582;44.624;20.378;2023-06-10T00:16:34;11.60;;;8.10;;
69392;SDS011;56582;44.624;20.378;2023-06-10T00:19:01;10.48;;;7.32;;
69392;SDS011;56582;44.624;20.378;2023-06-10T00:21:28;13.63;;;9.98;;
69392;SDS011;56582;44.624;20.378;2023-06-10T00:23:53;9.80;;;6.73;;
69392;SDS011;56582;44.624;20.378;2023-06-10T00:26:20;12.98;;;8.57;;
69392;SDS011;56582;44.624;20.378;2023-06-10T00:28:49;13.05;;;10.27;;
69392;SDS011;56582;44.624;20.378;2023-06-10T00:31:15;10.45;;;6.60;;
69392;SDS011;56582;44.624;20.378;2023-06-10T00:33:41;13.10;;;9.37;;
69392;SDS011;56582;44.624;20.378;2023-06-10T00:36:06;10.60;;;6.50;;
69392;SDS011;56582;44.624;20.378;2023-06-10T00:38:32;7.93;;;5.67;;
69392;SDS011;56582;44.624;20.378;2023-06-10T00:40:58;10.13;;;7.80;;
69392;SDS011;56582;44.624;20.378;2023-06-10T00:43:23;10.43;;;7.20;;
69392;SDS011;56582;44.624;20.378;2023-06-10T00:45:49;8.03;;;5.67;;
69392;SDS011;56582;44.624;20.378;2023-06-10T00:48:15;10.48;;;6.47;;
69392;SDS011;56582;44.624;20.378;2023-06-10T00:50:41;8.73;;;6.70;;
69392;SDS011;56582;44.624;20.378;2023-06-10T00:53:06;9.90;;;5.10;;
69392;SDS011;56582;44.624;20.378;2023-06-10T00:55:33;8.38;;;6.45;;
69392;SDS011;56582;44.624;20.378;2023-06-10T00:57:59;12.43;;;8.90;;
69392;SDS011;56582;44.624;20.378;2023-06-10T01:00:25;9.55;;;7.20;;
69392;SDS011;56582;44.624;20.378;2023-06-10T01:02:51;8.43;;;5.53;;
69392;SDS011;56582;44.624;20.378;2023-06-10T01:05:18;5.80;;;4.17;;
69392;SDS011;56582;44.624;20.378;2023-06-10T01:10:35;5.93;;;4.40;;
69392;SDS011;56582;44.624;20.378;2023-06-10T01:13:06;7.97;;;4.95;;
69392;SDS011;56582;44.624;20.378;2023-06-10T01:15:36;11.13;;;7.55;;
69392;SDS011;56582;44.624;20.378;2023-06-10T01:18:03;6.37;;;4.17;;
69392;SDS011;56582;44.624;20.378;2023-06-10T01:20:33;8.45;;;4.82;;
69392;SDS011;56582;44.624;20.378;2023-06-10T01:23:00;7.13;;;4.10;;
69392;SDS011;56582;44.624;20.378;2023-06-10T01:25:31;7.47;;;4.82;;
69392;SDS011;56582;44.624;20.378;2023-06-10T01:33:59;8.25;;;6.10;;
69392;SDS011;56582;44.624;20.378;2023-06-10T01:36:25;7.97;;;5.85;;
69392;SDS011;56582;44.624;20.378;2023-06-10T01:38:52;11.32;;;7.63;;
69392;SDS011;56582;44.624;20.378;2023-06-10T01:41:18;13.18;;;8.77;;
69392;SDS011;56582;44.624;20.378;2023-06-10T01:43:47;11.83;;;7.07;;
69392;SDS011;56582;44.624;20.378;2023-06-10T01:46:16;9.02;;;7.00;;
69392;SDS011;56582;44.624;20.378;2023-06-10T01:48:44;8.05;;;6.05;;
69392;SDS011;56582;44.624;20.378;2023-06-10T01:51:10;9.43;;;5.80;;
69392;SDS011;56582;44.624;20.378;2023-06-10T01:53:35;14.45;;;9.65;;
69392;SDS011;56582;44.624;20.378;2023-06-10T01:56:01;9.70;;;5.87;;
69392;SDS011;56582;44.624;20.378;2023-06-10T01:58:26;12.70;;;9.10;;
69392;SDS011;56582;44.624;20.378;2023-06-10T02:00:52;6.30;;;4.13;;
69392;SDS011;56582;44.624;20.378;2023-06-10T02:03:17;6.50;;;4.13;;
69392;SDS011;56582;44.624;20.378;2023-06-10T02:05:43;7.77;;;5.87;;
69392;SDS011;56582;44.624;20.378;2023-06-10T02:08:09;6.57;;;4.22;;
69392;SDS011;56582;44.624;20.378;2023-06-10T02:10:34;9.30;;;6.43;;
69392;SDS011;56582;44.624;20.378;2023-06-10T02:13:00;7.10;;;5.33;;
69392;SDS011;56582;44.624;20.378;2023-06-10T02:15:34;10.13;;;5.73;;
69392;SDS011;56582;44.624;20.378;2023-06-10T02:18:00;15.60;;;9.95;;
69392;SDS011;56582;44.624;20.378;2023-06-10T02:20:25;15.97;;;10.73;;
69392;SDS011;56582;44.624;20.378;2023-06-10T02:22:51;11.83;;;7.83;;
69392;SDS011;56582;44.624;20.378;2023-06-10T02:25:16;8.55;;;5.43;;
69392;SDS011;56582;44.624;20.378;2023-06-10T02:27:42;12.27;;;8.90;;
69392;SDS011;56582;44.624;20.378;2023-06-10T02:30:07;9.57;;;5.43;;
69392;SDS011;56582;44.624;20.378;2023-06-10T02:32:35;14.10;;;10.40;;
69392;SDS011;56582;44.624;20.378;2023-06-10T02:35:01;16.02;;;10.95;;
69392;SDS011;56582;44.624;20.378;2023-06-10T02:37:26;16.13;;;11.97;;
69392;SDS011;56582;44.624;20.378;2023-06-10T02:39:52;16.10;;;10.17;;
69392;SDS011;56582;44.624;20.378;2023-06-10T02:42:17;18.27;;;12.23;;
69392;SDS011;56582;44.624;20.378;2023-06-10T02:44:42;15.68;;;10.32;;
69392;SDS011;56582;44.624;20.378;2023-06-10T02:47:08;16.07;;;11.17;;
69392;SDS011;56582;44.624;20.378;2023-06-10T02:49:33;18.50;;;12.37;;
69392;SDS011;56582;44.624;20.378;2023-06-10T02:51:59;16.73;;;12.27;;
69392;SDS011;56582;44.624;20.378;2023-06-10T02:54:24;15.63;;;11.13;;
69392;SDS011;56582;44.624;20.378;2023-06-10T02:56:50;21.40;;;11.13;;
69392;SDS011;56582;44.624;20.378;2023-06-10T02:59:16;18.30;;;10.73;;
69392;SDS011;56582;44.624;20.378;2023-06-10T03:01:42;13.75;;;9.13;;
69392;SDS011;56582;44.624;20.378;2023-06-10T03:04:07;15.67;;;11.30;;
69392;SDS011;56582;44.624;20.378;2023-06-10T03:06:33;15.57;;;11.50;;
69392;SDS011;56582;44.624;20.378;2023-06-10T03:09:00;12.30;;;7.33;;
69392;SDS011;56582;44.624;20.378;2023-06-10T03:11:26;16.88;;;12.35;;
69392;SDS011;56582;44.624;20.378;2023-06-10T03:13:52;17.40;;;13.20;;
69392;SDS011;56582;44.624;20.378;2023-06-10T03:16:19;17.30;;;11.57;;
69392;SDS011;56582;44.624;20.378;2023-06-10T03:18:44;17.77;;;12.82;;
69392;SDS011;56582;44.624;20.378;2023-06-10T03:21:10;19.20;;;13.23;;
69392;SDS011;56582;44.624;20.378;2023-06-10T03:23:36;21.00;;;13.97;;
69392;SDS011;56582;44.624;20.378;2023-06-10T03:26:02;17.92;;;12.70;;
69392;SDS011;56582;44.624;20.378;2023-06-10T03:28:27;20.80;;;12.67;;
69392;SDS011;56582;44.624;20.378;2023-06-10T03:30:53;20.17;;;13.60;;
69392;SDS011;56582;44.624;20.378;2023-06-10T03:33:18;16.70;;;10.30;;
69392;SDS011;56582;44.624;20.378;2023-06-10T03:35:43;20.97;;;9.87;;
69392;SDS011;56582;44.624;20.378;2023-06-10T03:38:09;21.63;;;13.83;;
69392;SDS011;56582;44.624;20.378;2023-06-10T03:40:34;18.20;;;13.07;;
69392;SDS011;56582;44.624;20.378;2023-06-10T03:43:00;21.10;;;12.27;;
69392;SDS011;56582;44.624;20.378;2023-06-10T03:45:25;18.87;;;12.77;;
69392;SDS011;56582;44.624;20.378;2023-06-10T03:47:53;24.98;;;14.25;;
69392;SDS011;56582;44.624;20.378;2023-06-10T03:50:18;22.02;;;12.73;;
69392;SDS011;56582;44.624;20.378;2023-06-10T03:52:44;26.20;;;13.20;;
69392;SDS011;56582;44.624;20.378;2023-06-10T03:55:10;17.92;;;12.80;;
69392;SDS011;56582;44.624;20.378;2023-06-10T03:57:38;22.27;;;16.00;;
69392;SDS011;56582;44.624;20.378;2023-06-10T04:00:04;25.08;;;16.60;;
69392;SDS011;56582;44.624;20.378;2023-06-10T04:02:37;26.90;;;14.77;;
69392;SDS011;56582;44.624;20.378;2023-06-10T04:05:02;22.57;;;16.13;;
69392;SDS011;56582;44.624;20.378;2023-06-10T04:07:28;19.55;;;14.32;;
69392;SDS011;56582;44.624;20.378;2023-06-10T04:09:55;24.05;;;15.88;;
69392;SDS011;56582;44.624;20.378;2023-06-10T04:12:21;20.10;;;14.83;;
69392;SDS011;56582;44.624;20.378;2023-06-10T04:14:46;21.98;;;16.25;;
69392;SDS011;56582;44.624;20.378;2023-06-10T04:17:12;23.90;;;17.27;;
69392;SDS011;56582;44.624;20.378;2023-06-10T04:19:37;26.67;;;17.13;;
69392;SDS011;56582;44.624;20.378;2023-06-10T04:22:03;27.73;;;18.23;;
69392;SDS011;56582;44.624;20.378;2023-06-10T04:24:29;26.88;;;17.27;;
69392;SDS011;56582;44.624;20.378;2023-06-10T04:26:54;25.63;;;16.30;;
69392;SDS011;56582;44.624;20.378;2023-06-10T04:29:19;26.73;;;18.13;;
69392;SDS011;56582;44.624;20.378;2023-06-10T04:31:45;27.37;;;17.10;;
69392;SDS011;56582;44.624;20.378;2023-06-10T04:34:11;27.98;;;18.38;;
69392;SDS011;56582;44.624;20.378;2023-06-10T04:36:37;30.10;;;18.33;;
69392;SDS011;56582;44.624;20.378;2023-06-10T04:39:03;28.08;;;17.83;;
69392;SDS011;56582;44.624;20.378;2023-06-10T04:41:29;29.00;;;18.17;;
69392;SDS011;56582;44.624;20.378;2023-06-10T04:43:54;26.20;;;17.20;;
69392;SDS011;56582;44.624;20.378;2023-06-10T04:46:20;25.83;;;16.50;;
69392;SDS011;56582;44.624;20.378;2023-06-10T04:48:45;29.10;;;18.03;;
69392;SDS011;56582;44.624;20.378;2023-06-10T04:51:12;27.15;;;18.15;;
69392;SDS011;56582;44.624;20.378;2023-06-10T04:53:38;29.50;;;16.65;;
69392;SDS011;56582;44.624;20.378;2023-06-10T04:56:04;23.90;;;16.83;;
69392;SDS011;56582;44.624;20.378;2023-06-10T04:58:29;23.75;;;15.63;;
69392;SDS011;56582;44.624;20.378;2023-06-10T05:00:55;25.47;;;16.07;;
69392;SDS011;56582;44.624;20.378;2023-06-10T05:03:20;25.57;;;16.20;;
69392;SDS011;56582;44.624;20.378;2023-06-10T05:05:46;23.30;;;16.37;;
69392;SDS011;56582;44.624;20.378;2023-06-10T05:08:11;21.25;;;14.82;;
69392;SDS011;56582;44.624;20.378;2023-06-10T05:10:37;20.17;;;12.97;;
69392;SDS011;56582;44.624;20.378;2023-06-10T05:13:02;20.20;;;12.77;;
69392;SDS011;56582;44.624;20.378;2023-06-10T05:15:28;17.38;;;10.40;;
69392;SDS011;56582;44.624;20.378;2023-06-10T05:17:56;13.85;;;8.65;;
69392;SDS011;56582;44.624;20.378;2023-06-10T05:20:23;14.97;;;9.90;;
69392;SDS011;56582;44.624;20.378;2023-06-10T05:22:50;13.02;;;8.98;;
69392;SDS011;56582;44.624;20.378;2023-06-10T05:25:15;11.30;;;7.55;;
69392;SDS011;56582;44.624;20.378;2023-06-10T05:27:41;12.80;;;8.17;;
69392;SDS011;56582;44.624;20.378;2023-06-10T05:30:08;12.82;;;8.85;;
69392;SDS011;56582;44.624;20.378;2023-06-10T05:32:35;12.48;;;9.27;;
69392;SDS011;56582;44.624;20.378;2023-06-10T05:35:00;15.50;;;10.10;;
69392;SDS011;56582;44.624;20.378;2023-06-10T05:37:26;12.15;;;9.02;;
69392;SDS011;56582;44.624;20.378;2023-06-10T05:39:52;13.77;;;9.27;;
69392;SDS011;56582;44.624;20.378;2023-06-10T05:42:17;13.60;;;8.80;;
69392;SDS011;56582;44.624;20.378;2023-06-10T05:44:43;14.90;;;9.60;;
69392;SDS011;56582;44.624;20.378;2023-06-10T05:47:08;15.57;;;9.40;;
69392;SDS011;56582;44.624;20.378;2023-06-10T05:49:34;13.83;;;9.00;;
69392;SDS011;56582;44.624;20.378;2023-06-10T05:51:59;12.30;;;8.80;;
69392;SDS011;56582;44.624;20.378;2023-06-10T05:54:25;12.73;;;7.93;;
69392;SDS011;56582;44.624;20.378;2023-06-10T05:56:51;13.35;;;8.60;;
69392;SDS011;56582;44.624;20.378;2023-06-10T05:59:17;13.82;;;8.70;;
69392;SDS011;56582;44.624;20.378;2023-06-10T06:01:42;14.53;;;9.13;;
69392;SDS011;56582;44.624;20.378;2023-06-10T06:04:08;11.80;;;8.50;;
69392;SDS011;56582;44.624;20.378;2023-06-10T06:06:34;13.93;;;8.50;;
69392;SDS011;56582;44.624;20.378;2023-06-10T06:09:00;12.38;;;8.68;;
69392;SDS011;56582;44.624;20.378;2023-06-10T06:11:25;13.67;;;9.80;;
69392;SDS011;56582;44.624;20.378;2023-06-10T06:13:51;13.00;;;8.55;;
69392;SDS011;56582;44.624;20.378;2023-06-10T06:16:16;13.57;;;8.90;;
69392;SDS011;56582;44.624;20.378;2023-06-10T06:18:43;12.88;;;8.32;;
69392;SDS011;56582;44.624;20.378;2023-06-10T06:21:09;9.93;;;7.37;;
69392;SDS011;56582;44.624;20.378;2023-06-10T06:23:34;8.70;;;6.80;;
69392;SDS011;56582;44.624;20.378;2023-06-10T06:25:59;8.40;;;5.43;;
69392;SDS011;56582;44.624;20.378;2023-06-10T06:28:25;11.43;;;6.70;;
69392;SDS011;56582;44.624;20.378;2023-06-10T06:30:54;7.85;;;5.82;;
69392;SDS011;56582;44.624;20.378;2023-06-10T06:33:20;8.20;;;5.95;;
69392;SDS011;56582;44.624;20.378;2023-06-10T06:35:45;7.20;;;5.30;;
69392;SDS011;56582;44.624;20.378;2023-06-10T06:38:11;8.27;;;5.93;;
69392;SDS011;56582;44.624;20.378;2023-06-10T06:40:37;9.38;;;5.03;;
69392;SDS011;56582;44.624;20.378;2023-06-10T06:43:02;9.50;;;6.00;;
69392;SDS011;56582;44.624;20.378;2023-06-10T06:45:28;8.27;;;5.97;;
69392;SDS011;56582;44.624;20.378;2023-06-10T06:47:53;8.77;;;6.22;;
69392;SDS011;56582;44.624;20.378;2023-06-10T06:50:19;10.63;;;5.67;;
69392;SDS011;56582;44.624;20.378;2023-06-10T06:52:44;8.30;;;6.37;;
69392;SDS011;56582;44.624;20.378;2023-06-10T06:55:10;9.07;;;6.30;;
69392;SDS011;56582;44.624;20.378;2023-06-10T06:57:35;9.23;;;5.83;;
69392;SDS011;56582;44.624;20.378;2023-06-10T07:00:10;7.85;;;5.60;;
69392;SDS011;56582;44.624;20.378;2023-06-10T07:02:37;8.85;;;5.85;;
69392;SDS011;56582;44.624;20.378;2023-06-10T07:05:03;9.90;;;6.70;;
69392;SDS011;56582;44.624;20.378;2023-06-10T07:07:28;8.90;;;6.43;;
69392;SDS011;56582;44.624;20.378;2023-06-10T07:09:54;8.50;;;6.27;;
69392;SDS011;56582;44.624;20.378;2023-06-10T07:12:29;8.95;;;5.90;;
69392;SDS011;56582;44.624;20.378;2023-06-10T07:14:58;8.68;;;6.28;;
69392;SDS011;56582;44.624;20.378;2023-06-10T07:17:24;12.13;;;7.55;;
69392;SDS011;56582;44.624;20.378;2023-06-10T07:19:50;9.17;;;6.50;;
69392;SDS011;56582;44.624;20.378;2023-06-10T07:22:16;9.20;;;7.18;;
69392;SDS011;56582;44.624;20.378;2023-06-10T07:24:46;11.07;;;7.10;;
69392;SDS011;56582;44.624;20.378;2023-06-10T07:27:12;10.38;;;6.80;;
69392;SDS011;56582;44.624;20.378;2023-06-10T07:29:38;11.07;;;7.77;;
69392;SDS011;56582;44.624;20.378;2023-06-10T07:32:04;10.23;;;6.95;;
69392;SDS011;56582;44.624;20.378;2023-06-10T07:34:29;10.50;;;7.18;;
69392;SDS011;56582;44.624;20.378;2023-06-10T07:36:55;11.30;;;7.23;;
69392;SDS011;56582;44.624;20.378;2023-06-10T07:39:21;11.80;;;7.40;;
69392;SDS011;56582;44.624;20.378;2023-06-10T07:41:46;10.30;;;6.83;;
69392;SDS011;56582;44.624;20.378;2023-06-10T07:44:14;11.93;;;8.15;;
69392;SDS011;56582;44.624;20.378;2023-06-10T07:46:40;10.93;;;6.97;;
69392;SDS011;56582;44.624;20.378;2023-06-10T07:49:05;10.20;;;6.85;;
69392;SDS011;56582;44.624;20.378;2023-06-10T07:51:30;10.50;;;7.00;;
69392;SDS011;56582;44.624;20.378;2023-06-10T07:53:56;10.52;;;7.40;;
69392;SDS011;56582;44.624;20.378;2023-06-10T07:56:22;11.20;;;7.67;;
69392;SDS011;56582;44.624;20.378;2023-06-10T07:58:51;10.38;;;6.75;;
69392;SDS011;56582;44.624;20.378;2023-06-10T08:01:16;8.80;;;6.87;;
69392;SDS011;56582;44.624;20.378;2023-06-10T08:03:42;9.97;;;6.73;;
69392;SDS011;56582;44.624;20.378;2023-06-10T08:06:08;10.90;;;7.65;;
69392;SDS011;56582;44.624;20.378;2023-06-10T08:08:36;11.60;;;7.85;;
69392;SDS011;56582;44.624;20.378;2023-06-10T08:11:06;8.98;;;6.57;;
69392;SDS011;56582;44.624;20.378;2023-06-10T08:13:32;11.10;;;8.55;;
69392;SDS011;56582;44.624;20.378;2023-06-10T08:15:58;10.20;;;7.20;;
69392;SDS011;56582;44.624;20.378;2023-06-10T08:18:29;12.07;;;7.67;;
69392;SDS011;56582;44.624;20.378;2023-06-10T08:20:55;9.73;;;7.03;;
69392;SDS011;56582;44.624;20.378;2023-06-10T08:23:20;8.83;;;6.17;;
69392;SDS011;56582;44.624;20.378;2023-06-10T08:25:46;7.47;;;5.65;;
69392;SDS011;56582;44.624;20.378;2023-06-10T08:28:11;10.90;;;7.63;;
69392;SDS011;56582;44.624;20.378;2023-06-10T08:30:37;11.20;;;7.63;;
69392;SDS011;56582;44.624;20.378;2023-06-10T08:33:02;10.57;;;7.13;;
69392;SDS011;56582;44.624;20.378;2023-06-10T08:35:28;8.37;;;6.43;;
69392;SDS011;56582;44.624;20.378;2023-06-10T08:37:53;9.93;;;6.90;;
69392;SDS011;56582;44.624;20.378;2023-06-10T08:40:19;7.68;;;5.78;;
69392;SDS011;56582;44.624;20.378;2023-06-10T08:42:49;7.77;;;5.27;;
69392;SDS011;56582;44.624;20.378;2023-06-10T08:45:30;7.22;;;5.45;;
69392;SDS011;56582;44.624;20.378;2023-06-10T08:47:57;9.13;;;6.35;;
69392;SDS011;56582;44.624;20.378;2023-06-10T08:50:24;9.00;;;7.10;;
69392;SDS011;56582;44.624;20.378;2023-06-10T08:52:54;9.15;;;6.18;;
69392;SDS011;56582;44.624;20.378;2023-06-10T08:55:26;8.45;;;6.10;;
69392;SDS011;56582;44.624;20.378;2023-06-10T08:57:55;7.88;;;5.95;;
69392;SDS011;56582;44.624;20.378;2023-06-10T09:00:21;8.73;;;5.47;;
69392;SDS011;56582;44.624;20.378;2023-06-10T09:02:47;7.70;;;5.97;;
69392;SDS011;56582;44.624;20.378;2023-06-10T09:05:14;7.80;;;6.10;;
69392;SDS011;56582;44.624;20.378;2023-06-10T09:07:41;7.13;;;5.00;;
69392;SDS011;56582;44.624;20.378;2023-06-10T09:10:07;7.55;;;5.35;;
69392;SDS011;56582;44.624;20.378;2023-06-10T09:12:33;7.32;;;5.22;;
69392;SDS011;56582;44.624;20.378;2023-06-10T09:15:00;9.43;;;5.80;;
69392;SDS011;56582;44.624;20.378;2023-06-10T09:17:29;7.05;;;5.07;;
69392;SDS011;56582;44.624;20.378;2023-06-10T09:19:55;8.93;;;5.37;;
69392;SDS011;56582;44.624;20.378;2023-06-10T09:22:22;7.35;;;5.40;;
69392;SDS011;56582;44.624;20.378;2023-06-10T09:24:48;7.43;;;5.40;;
69392;SDS011;56582;44.624;20.378;2023-06-10T09:27:14;7.32;;;4.63;;
69392;SDS011;56582;44.624;20.378;2023-06-10T09:29:52;24.90;;;6.43;;
69392;SDS011;56582;44.624;20.378;2023-06-10T09:32:19;17.63;;;6.60;;
69392;SDS011;56582;44.624;20.378;2023-06-10T09:37:49;39.05;;;6.90;;
69392;SDS011;56582;44.624;20.378;2023-06-10T09:40:17;8.57;;;4.77;;
69392;SDS011;56582;44.624;20.378;2023-06-10T09:42:42;8.73;;;5.03;;
69392;SDS011;56582;44.624;20.378;2023-06-10T09:45:08;7.73;;;5.03;;
69392;SDS011;56582;44.624;20.378;2023-06-10T09:47:33;9.80;;;5.17;;
69392;SDS011;56582;44.624;20.378;2023-06-10T09:50:01;11.10;;;5.15;;
69392;SDS011;56582;44.624;20.378;2023-06-10T09:52:28;13.10;;;5.88;;
69392;SDS011;56582;44.624;20.378;2023-06-10T09:54:58;12.90;;;5.40;;
69392;SDS011;56582;44.624;20.378;2023-06-10T09:57:26;13.70;;;8.23;;
69392;SDS011;56582;44.624;20.378;2023-06-10T09:59:57;10.60;;;5.73;;
69392;SDS011;56582;44.624;20.378;2023-06-10T10:02:22;8.15;;;5.10;;
69392;SDS011;56582;44.624;20.378;2023-06-10T10:04:48;7.70;;;4.90;;
69392;SDS011;56582;44.624;20.378;2023-06-10T10:07:14;8.10;;;5.03;;
69392;SDS011;56582;44.624;20.378;2023-06-10T10:09:40;6.97;;;5.00;;
69392;SDS011;56582;44.624;20.378;2023-06-10T10:12:08;13.37;;;5.93;;
69392;SDS011;56582;44.624;20.378;2023-06-10T10:14:40;10.18;;;5.35;;
69392;SDS011;56582;44.624;20.378;2023-06-10T10:17:10;8.38;;;3.75;;
69392;SDS011;56582;44.624;20.378;2023-06-10T10:19:47;8.98;;;5.10;;
69392;SDS011;56582;44.624;20.378;2023-06-10T10:22:18;15.27;;;4.78;;
69392;SDS011;56582;44.624;20.378;2023-06-10T10:24:52;7.57;;;4.60;;
69392;SDS011;56582;44.624;20.378;2023-06-10T10:27:28;12.23;;;5.13;;
69392;SDS011;56582;44.624;20.378;2023-06-10T10:30:00;6.13;;;3.85;;
69392;SDS011;56582;44.624;20.378;2023-06-10T10:32:32;18.65;;;5.03;;
69392;SDS011;56582;44.624;20.378;2023-06-10T10:35:17;8.73;;;5.55;;
69392;SDS011;56582;44.624;20.378;2023-06-10T10:37:46;7.97;;;4.67;;
69392;SDS011;56582;44.624;20.378;2023-06-10T10:40:12;6.32;;;4.40;;
69392;SDS011;56582;44.624;20.378;2023-06-10T10:42:40;6.75;;;4.22;;
69392;SDS011;56582;44.624;20.378;2023-06-10T10:45:06;16.13;;;5.40;;
69392;SDS011;56582;44.624;20.378;2023-06-10T10:47:32;8.40;;;5.20;;
69392;SDS011;56582;44.624;20.378;2023-06-10T10:50:00;7.90;;;6.47;;
69392;SDS011;56582;44.624;20.378;2023-06-10T10:52:26;6.63;;;4.32;;
69392;SDS011;56582;44.624;20.378;2023-06-10T10:55:12;19.13;;;8.00;;
69392;SDS011;56582;44.624;20.378;2023-06-10T10:57:38;9.00;;;8.10;;
69392;SDS011;56582;44.624;20.378;2023-06-10T11:00:04;7.47;;;6.00;;
69392;SDS011;56582;44.624;20.378;2023-06-10T11:05:08;8.23;;;5.72;;
69392;SDS011;56582;44.624;20.378;2023-06-10T11:07:52;5.97;;;4.27;;
69392;SDS011;56582;44.624;20.378;2023-06-10T11:24:52;6.85;;;4.72;;
69392;SDS011;56582;44.624;20.378;2023-06-10T11:27:18;6.85;;;4.50;;
69392;SDS011;56582;44.624;20.378;2023-06-10T11:32:29;8.85;;;5.03;;
69392;SDS011;56582;44.624;20.378;2023-06-10T11:34:56;7.07;;;4.85;;
69392;SDS011;56582;44.624;20.378;2023-06-10T11:37:22;7.47;;;4.90;;
69392;SDS011;56582;44.624;20.378;2023-06-10T11:39:52;10.20;;;5.53;;
69392;SDS011;56582;44.624;20.378;2023-06-10T11:42:19;5.85;;;4.68;;
69392;SDS011;56582;44.624;20.378;2023-06-10T11:44:49;6.25;;;4.30;;
69392;SDS011;56582;44.624;20.378;2023-06-10T11:47:18;6.55;;;4.90;;
69392;SDS011;56582;44.624;20.378;2023-06-10T11:49:45;8.90;;;4.70;;
69392;SDS011;56582;44.624;20.378;2023-06-10T11:52:28;6.83;;;5.30;;
69392;SDS011;56582;44.624;20.378;2023-06-10T11:54:54;7.00;;;5.25;;
69392;SDS011;56582;44.624;20.378;2023-06-10T11:57:20;7.47;;;5.45;;
69392;SDS011;56582;44.624;20.378;2023-06-10T11:59:46;6.80;;;4.83;;
69392;SDS011;56582;44.624;20.378;2023-06-10T12:02:18;7.55;;;4.50;;
69392;SDS011;56582;44.624;20.378;2023-06-10T12:04:44;6.43;;;4.80;;
69392;SDS011;56582;44.624;20.378;2023-06-10T12:07:16;8.07;;;5.00;;
69392;SDS011;56582;44.624;20.378;2023-06-10T12:09:44;6.35;;;4.93;;
69392;SDS011;56582;44.624;20.378;2023-06-10T12:12:10;6.88;;;4.93;;
69392;SDS011;56582;44.624;20.378;2023-06-10T12:14:56;9.93;;;5.30;;
69392;SDS011;56582;44.624;20.378;2023-06-10T12:20:02;6.68;;;4.80;;
69392;SDS011;56582;44.624;20.378;2023-06-10T12:22:42;7.10;;;4.60;;
69392;SDS011;56582;44.624;20.378;2023-06-10T12:25:11;12.90;;;5.20;;
69392;SDS011;56582;44.624;20.378;2023-06-10T12:27:38;6.20;;;4.32;;
69392;SDS011;56582;44.624;20.378;2023-06-10T12:30:04;6.30;;;5.00;;
69392;SDS011;56582;44.624;20.378;2023-06-10T12:35:08;7.88;;;5.10;;
69392;SDS011;56582;44.624;20.378;2023-06-10T12:37:35;7.57;;;4.88;;
69392;SDS011;56582;44.624;20.378;2023-06-10T12:40:02;7.60;;;4.50;;
69392;SDS011;56582;44.624;20.378;2023-06-10T12:42:29;7.43;;;4.00;;
69392;SDS011;56582;44.624;20.378;2023-06-10T12:44:56;7.30;;;4.55;;
69392;SDS011;56582;44.624;20.378;2023-06-10T12:47:32;7.97;;;4.82;;
69392;SDS011;56582;44.624;20.378;2023-06-10T12:50:00;7.30;;;4.80;;
69392;SDS011;56582;44.624;20.378;2023-06-10T12:52:30;8.30;;;5.38;;
69392;SDS011;56582;44.624;20.378;2023-06-10T12:54:55;6.13;;;4.20;;
69392;SDS011;56582;44.624;20.378;2023-06-10T12:57:21;6.35;;;4.40;;
69392;SDS011;56582;44.624;20.378;2023-06-10T12:59:47;6.43;;;4.47;;
69392;SDS011;56582;44.624;20.378;2023-06-10T13:02:20;5.80;;;4.22;;
69392;SDS011;56582;44.624;20.378;2023-06-10T13:04:48;10.93;;;4.43;;
69392;SDS011;56582;44.624;20.378;2023-06-10T13:07:14;8.75;;;4.53;;
69392;SDS011;56582;44.624;20.378;2023-06-10T13:09:40;7.93;;;4.70;;
69392;SDS011;56582;44.624;20.378;2023-06-10T13:12:06;7.27;;;4.60;;
69392;SDS011;56582;44.624;20.378;2023-06-10T13:14:33;8.15;;;4.28;;
69392;SDS011;56582;44.624;20.378;2023-06-10T13:16:58;9.67;;;5.00;;
69392;SDS011;56582;44.624;20.378;2023-06-10T13:19:24;7.45;;;4.40;;
69392;SDS011;56582;44.624;20.378;2023-06-10T13:21:49;7.60;;;4.87;;
69392;SDS011;56582;44.624;20.378;2023-06-10T13:24:14;9.03;;;4.67;;
69392;SDS011;56582;44.624;20.378;2023-06-10T13:26:40;9.07;;;4.83;;
69392;SDS011;56582;44.624;20.378;2023-06-10T13:29:06;6.05;;;4.45;;
69392;SDS011;56582;44.624;20.378;2023-06-10T13:31:33;6.22;;;4.45;;
69392;SDS011;56582;44.624;20.378;2023-06-10T13:33:58;9.30;;;4.70;;
69392;SDS011;56582;44.624;20.378;2023-06-10T13:36:24;6.22;;;3.83;;
69392;SDS011;56582;44.624;20.378;2023-06-10T13:38:49;7.33;;;4.63;;
69392;SDS011;56582;44.624;20.378;2023-06-10T13:41:15;10.67;;;4.50;;
69392;SDS011;56582;44.624;20.378;2023-06-10T13:43:41;5.90;;;4.40;;
69392;SDS011;56582;44.624;20.378;2023-06-10T13:46:06;5.90;;;4.03;;
69392;SDS011;56582;44.624;20.378;2023-06-10T13:48:35;7.28;;;4.05;;
69392;SDS011;56582;44.624;20.378;2023-06-10T13:51:00;5.73;;;3.30;;
69392;SDS011;56582;44.624;20.378;2023-06-10T13:53:26;6.37;;;4.97;;
69392;SDS011;56582;44.624;20.378;2023-06-10T13:55:51;5.30;;;4.10;;
69392;SDS011;56582;44.624;20.378;2023-06-10T13:58:17;7.30;;;4.50;;
69392;SDS011;56582;44.624;20.378;2023-06-10T14:00:42;6.70;;;4.13;;
69392;SDS011;56582;44.624;20.378;2023-06-10T14:03:08;5.80;;;3.50;;
69392;SDS011;56582;44.624;20.378;2023-06-10T14:05:34;5.43;;;4.00;;
69392;SDS011;56582;44.624;20.378;2023-06-10T14:07:59;5.78;;;3.80;;
69392;SDS011;56582;44.624;20.378;2023-06-10T14:10:25;6.20;;;3.73;;
69392;SDS011;56582;44.624;20.378;2023-06-10T14:12:50;6.97;;;3.75;;
69392;SDS011;56582;44.624;20.378;2023-06-10T14:15:16;5.43;;;3.83;;
69392;SDS011;56582;44.624;20.378;2023-06-10T14:17:42;6.18;;;3.90;;
69392;SDS011;56582;44.624;20.378;2023-06-10T14:20:07;4.80;;;3.30;;
69392;SDS011;56582;44.624;20.378;2023-06-10T14:22:33;5.88;;;4.03;;
69392;SDS011;56582;44.624;20.378;2023-06-10T14:24:58;6.20;;;4.13;;
69392;SDS011;56582;44.624;20.378;2023-06-10T14:27:24;6.60;;;3.83;;
69392;SDS011;56582;44.624;20.378;2023-06-10T14:29:50;5.55;;;3.90;;
69392;SDS011;56582;44.624;20.378;2023-06-10T14:32:15;5.23;;;3.57;;
69392;SDS011;56582;44.624;20.378;2023-06-10T14:34:41;6.80;;;3.73;;
69392;SDS011;56582;44.624;20.378;2023-06-10T14:37:07;4.82;;;3.38;;
69392;SDS011;56582;44.624;20.378;2023-06-10T14:39:32;5.27;;;3.23;;
69392;SDS011;56582;44.624;20.378;2023-06-10T14:41:58;5.90;;;4.00;;
69392;SDS011;56582;44.624;20.378;2023-06-10T14:44:24;6.83;;;3.23;;
69392;SDS011;56582;44.624;20.378;2023-06-10T14:46:49;5.55;;;3.50;;
69392;SDS011;56582;44.624;20.378;2023-06-10T14:49:14;4.93;;;3.40;;
69392;SDS011;56582;44.624;20.378;2023-06-10T14:51:40;5.83;;;4.00;;
69392;SDS011;56582;44.624;20.378;2023-06-10T14:54:05;6.13;;;4.25;;
69392;SDS011;56582;44.624;20.378;2023-06-10T14:56:31;4.30;;;3.00;;
69392;SDS011;56582;44.624;20.378;2023-06-10T14:58:56;4.73;;;3.40;;
69392;SDS011;56582;44.624;20.378;2023-06-10T15:01:22;5.90;;;3.80;;